^^
Saratoga-Weather Station Historical Data
Daily Summary for July 01, 2022 Units:  Both    English   Metric
Daily Weekly Monthly Yearly Custom
  High: Low: Average:
Temperature: 71.4 °F /  21.9 °C 54.3 °F /  12.4 °C 61.9 °F /  16.6 °C
Dew Point: 55.4 °F /  13 °C 49.5 °F /  9.7 °C 52.2 °F /  11.2 °C
Humidity: 92% 46% 73%
Wind Speed: 13mph /  20.9km/h - 2.4mph /  3.8km/h
Wind Gust: 14mph /  22.5km/h - -
Wind- - West
Pressure: 30.2 in /  1021.3 hPa 30 in /  1015.2 hPa -
Precipitation: 0 in /  0.0 mm    
Historical Graphs
 
 
Tabular Data for July 01, 2022
Time Temperature Dew Point Pressure Wind Wind Speed Wind Gust Humidity Rainfall Rate (Hourly) solar
00:00 55.8 °F /  13.2 °C 53.4 °F /  11.9 °C 30in /  1015.6hPa West 0.9mph /  1.4km/h 3mph /  4.8km/h 92% 0in /  0.0mm 0 W/m2
00:05 55.8 °F /  13.2 °C 53.4 °F /  11.9 °C 30in /  1015.9hPa WNW 2.9mph /  4.7km/h 3mph /  4.8km/h 92% 0in /  0.0mm 0 W/m2
00:10 55.8 °F /  13.2 °C 53.4 °F /  11.9 °C 30in /  1015.6hPa WNW 2mph /  3.2km/h 3mph /  4.8km/h 92% 0in /  0.0mm 0 W/m2
00:15 55.8 °F /  13.2 °C 53.4 °F /  11.9 °C 30in /  1015.9hPa West 2.9mph /  4.7km/h 6mph /  9.7km/h 92% 0in /  0.0mm 0 W/m2
00:20 55.8 °F /  13.2 °C 53.4 °F /  11.9 °C 30in /  1015.9hPa Calm   6mph /  9.7km/h 92% 0in /  0.0mm 0 W/m2
00:25 55.8 °F /  13.2 °C 53.4 °F /  11.9 °C 30in /  1015.6hPa WNW 2mph /  3.2km/h 3mph /  4.8km/h 92% 0in /  0.0mm 0 W/m2
00:30 55.8 °F /  13.2 °C 53.4 °F /  11.9 °C 30in /  1015.6hPa WNW 2mph /  3.2km/h 5mph /  8km/h 92% 0in /  0.0mm 0 W/m2
00:35 55.8 °F /  13.2 °C 53.4 °F /  11.9 °C 30in /  1015.9hPa Calm   2mph /  3.2km/h 92% 0in /  0.0mm 0 W/m2
00:40 55.8 °F /  13.2 °C 53.4 °F /  11.9 °C 30in /  1015.9hPa Calm   1mph /  1.6km/h 92% 0in /  0.0mm 0 W/m2
00:45 55.8 °F /  13.2 °C 53.4 °F /  11.9 °C 30in /  1015.9hPa NW 0.9mph /  1.4km/h 2mph /  3.2km/h 92% 0in /  0.0mm 0 W/m2
00:50 55.8 °F /  13.2 °C 53.4 °F /  11.9 °C 30in /  1015.9hPa NW 2mph /  3.2km/h 2mph /  3.2km/h 92% 0in /  0.0mm 0 W/m2
00:55 55.8 °F /  13.2 °C 53.4 °F /  11.9 °C 30in /  1015.9hPa Calm   2mph /  3.2km/h 92% 0in /  0.0mm 0 W/m2
01:00 55.8 °F /  13.2 °C 53.4 °F /  11.9 °C 30in /  1015.6hPa Calm     92% 0in /  0.0mm 0 W/m2
01:05 55.8 °F /  13.2 °C 53.4 °F /  11.9 °C 30in /  1015.6hPa NW 0.9mph /  1.4km/h 1mph /  1.6km/h 92% 0in /  0.0mm 0 W/m2
01:10 55.8 °F /  13.2 °C 53.4 °F /  11.9 °C 30in /  1015.6hPa Calm   1mph /  1.6km/h 92% 0in /  0.0mm 0 W/m2
01:15 55.8 °F /  13.2 °C 53.4 °F /  11.9 °C 30in /  1015.6hPa Calm     92% 0in /  0.0mm 0 W/m2
01:20 55.8 °F /  13.2 °C 53.4 °F /  11.9 °C 30in /  1015.2hPa Calm     92% 0in /  0.0mm 0 W/m2
01:25 55.8 °F /  13.2 °C 53.4 °F /  11.9 °C 30in /  1015.2hPa NW 2mph /  3.2km/h 3mph /  4.8km/h 92% 0in /  0.0mm 0 W/m2
01:30 55.8 °F /  13.2 °C 53.4 °F /  11.9 °C 30in /  1015.2hPa WNW 2mph /  3.2km/h 2mph /  3.2km/h 92% 0in /  0.0mm 0 W/m2
01:35 55.8 °F /  13.2 °C 53.4 °F /  11.9 °C 30in /  1015.2hPa West 2mph /  3.2km/h 3mph /  4.8km/h 92% 0in /  0.0mm 0 W/m2
01:40 55.8 °F /  13.2 °C 53.4 °F /  11.9 °C 30in /  1015.2hPa West 2mph /  3.2km/h 4mph /  6.4km/h 92% 0in /  0.0mm 0 W/m2
01:45 55.6 °F /  13.1 °C 53.2 °F /  11.8 °C 30in /  1015.6hPa West 2mph /  3.2km/h 2mph /  3.2km/h 92% 0in /  0.0mm 0 W/m2
01:50 55.6 °F /  13.1 °C 53.2 °F /  11.8 °C 30in /  1015.6hPa WSW 4mph /  6.4km/h 7mph /  11.3km/h 92% 0in /  0.0mm 0 W/m2
01:55 55.6 °F /  13.1 °C 53.2 °F /  11.8 °C 30in /  1015.6hPa WNW 2.9mph /  4.7km/h 4mph /  6.4km/h 92% 0in /  0.0mm 0 W/m2
02:00 55.6 °F /  13.1 °C 53.2 °F /  11.8 °C 30in /  1015.6hPa WSW 0.9mph /  1.4km/h 4mph /  6.4km/h 92% 0in /  0.0mm 0 W/m2
02:05 55.6 °F /  13.1 °C 53.1 °F /  11.7 °C 30in /  1015.9hPa West 2mph /  3.2km/h 4mph /  6.4km/h 91% 0in /  0.0mm 0 W/m2
02:10 55.6 °F /  13.1 °C 53.2 °F /  11.8 °C 30in /  1016.3hPa West 0.9mph /  1.4km/h 2mph /  3.2km/h 92% 0in /  0.0mm 0 W/m2
02:15 55.4 °F /  13 °C 53.1 °F /  11.7 °C 30in /  1016.3hPa West 4mph /  6.4km/h 4mph /  6.4km/h 92% 0in /  0.0mm 0 W/m2
02:20 55.4 °F /  13 °C 53.1 °F /  11.7 °C 30in /  1016.3hPa West 2mph /  3.2km/h 3mph /  4.8km/h 92% 0in /  0.0mm 0 W/m2
02:25 55.4 °F /  13 °C 53.1 °F /  11.7 °C 30in /  1016.3hPa West 0.9mph /  1.4km/h 3mph /  4.8km/h 92% 0in /  0.0mm 0 W/m2
02:30 55.4 °F /  13 °C 53.1 °F /  11.7 °C 30in /  1016.3hPa WNW 2.9mph /  4.7km/h 5mph /  8km/h 92% 0in /  0.0mm 0 W/m2
02:35 55.4 °F /  13 °C 53.1 °F /  11.7 °C 30in /  1016.3hPa West 2mph /  3.2km/h 3mph /  4.8km/h 92% 0in /  0.0mm 0 W/m2
02:40 55.2 °F /  12.9 °C 52.9 °F /  11.6 °C 30in /  1016.6hPa West 2.9mph /  4.7km/h 4mph /  6.4km/h 92% 0in /  0.0mm 0 W/m2
02:45 55.2 °F /  12.9 °C 52.9 °F /  11.6 °C 30in /  1016.6hPa WSW 2mph /  3.2km/h 4mph /  6.4km/h 92% 0in /  0.0mm 0 W/m2
02:50 55 °F /  12.8 °C 52.7 °F /  11.5 °C 30in /  1016.6hPa WNW 2.9mph /  4.7km/h 6mph /  9.7km/h 92% 0in /  0.0mm 0 W/m2
02:55 55 °F /  12.8 °C 52.7 °F /  11.5 °C 30in /  1016.3hPa WNW 0.9mph /  1.4km/h 4mph /  6.4km/h 92% 0in /  0.0mm 0 W/m2
03:00 55 °F /  12.8 °C 52.7 °F /  11.5 °C 30in /  1016.3hPa Calm   1mph /  1.6km/h 92% 0in /  0.0mm 0 W/m2
03:05 55 °F /  12.8 °C 52.7 °F /  11.5 °C 30in /  1016.3hPa WSW 2mph /  3.2km/h 2mph /  3.2km/h 92% 0in /  0.0mm 0 W/m2
03:10 55 °F /  12.8 °C 52.7 °F /  11.5 °C 30in /  1016.6hPa Calm   2mph /  3.2km/h 92% 0in /  0.0mm 0 W/m2
03:15 55 °F /  12.8 °C 52.7 °F /  11.5 °C 30in /  1016.6hPa WNW 0.9mph /  1.4km/h 2mph /  3.2km/h 92% 0in /  0.0mm 0 W/m2
03:20 55 °F /  12.8 °C 52.7 °F /  11.5 °C 30in /  1016.6hPa East 2mph /  3.2km/h 2mph /  3.2km/h 92% 0in /  0.0mm 0 W/m2
03:25 55 °F /  12.8 °C 52.7 °F /  11.5 °C 30in /  1016.6hPa WNW 0.9mph /  1.4km/h 3mph /  4.8km/h 92% 0in /  0.0mm 0 W/m2
03:30 55 °F /  12.8 °C 52.7 °F /  11.5 °C 30in /  1016.6hPa Calm   2mph /  3.2km/h 92% 0in /  0.0mm 0 W/m2
03:35 55 °F /  12.8 °C 52.7 °F /  11.5 °C 30in /  1016.9hPa Calm   3mph /  4.8km/h 92% 0in /  0.0mm 0 W/m2
03:40 55 °F /  12.8 °C 52.7 °F /  11.5 °C 30in /  1016.9hPa West 2mph /  3.2km/h 4mph /  6.4km/h 92% 0in /  0.0mm 0 W/m2
03:45 55 °F /  12.8 °C 52.5 °F /  11.4 °C 30in /  1016.9hPa WSW 0.9mph /  1.4km/h 1mph /  1.6km/h 91% 0in /  0.0mm 0 W/m2
03:50 55 °F /  12.8 °C 52.7 °F /  11.5 °C 30in /  1016.6hPa NW 2mph /  3.2km/h 4mph /  6.4km/h 92% 0in /  0.0mm 0 W/m2
03:55 55 °F /  12.8 °C 52.5 °F /  11.4 °C 30in /  1016.6hPa NW 0.9mph /  1.4km/h 3mph /  4.8km/h 91% 0in /  0.0mm 0 W/m2
04:01 55 °F /  12.8 °C 52.5 °F /  11.4 °C 30in /  1016.3hPa NW 0.9mph /  1.4km/h 2mph /  3.2km/h 91% 0in /  0.0mm 0 W/m2
04:06 55 °F /  12.8 °C 52.7 °F /  11.5 °C 30in /  1016.3hPa Calm   3mph /  4.8km/h 92% 0in /  0.0mm 0 W/m2
04:11 54.9 °F /  12.7 °C 52.5 °F /  11.4 °C 30in /  1016.3hPa Calm   3mph /  4.8km/h 92% 0in /  0.0mm 0 W/m2
04:16 54.9 °F /  12.7 °C 52.5 °F /  11.4 °C 30in /  1016.3hPa Calm   1mph /  1.6km/h 92% 0in /  0.0mm 0 W/m2
04:21 54.9 °F /  12.7 °C 52.5 °F /  11.4 °C 30in /  1016.3hPa Calm   2mph /  3.2km/h 92% 0in /  0.0mm 0 W/m2
04:26 54.9 °F /  12.7 °C 52.5 °F /  11.4 °C 30in /  1016.6hPa ESE 2mph /  3.2km/h 3mph /  4.8km/h 92% 0in /  0.0mm 0 W/m2
04:31 54.9 °F /  12.7 °C 52.5 °F /  11.4 °C 30in /  1016.9hPa East 2mph /  3.2km/h 4mph /  6.4km/h 92% 0in /  0.0mm 0 W/m2
04:36 54.9 °F /  12.7 °C 52.5 °F /  11.4 °C 30in /  1016.9hPa Calm     92% 0in /  0.0mm 0 W/m2
04:41 54.9 °F /  12.7 °C 52.5 °F /  11.4 °C 30in /  1016.9hPa East 0.9mph /  1.4km/h 3mph /  4.8km/h 92% 0in /  0.0mm 0 W/m2
04:46 54.9 °F /  12.7 °C 52.5 °F /  11.4 °C 30in /  1016.6hPa Calm   1mph /  1.6km/h 92% 0in /  0.0mm 0 W/m2
04:51 54.7 °F /  12.6 °C 52.3 °F /  11.3 °C 30in /  1016.9hPa East 0.9mph /  1.4km/h 1mph /  1.6km/h 92% 0in /  0.0mm 0 W/m2
04:56 54.7 °F /  12.6 °C 52.3 °F /  11.3 °C 30in /  1016.9hPa East 0.9mph /  1.4km/h 2mph /  3.2km/h 92% 0in /  0.0mm 0 W/m2
05:01 54.7 °F /  12.6 °C 52.3 °F /  11.3 °C 30in /  1016.9hPa NE 0.9mph /  1.4km/h 2mph /  3.2km/h 92% 0in /  0.0mm 0 W/m2
05:06 54.7 °F /  12.6 °C 52.3 °F /  11.3 °C 30in /  1016.9hPa NNE 0.9mph /  1.4km/h 3mph /  4.8km/h 92% 0in /  0.0mm 0 W/m2
05:11 54.5 °F /  12.5 °C 52.2 °F /  11.2 °C 30in /  1016.9hPa NNE 0.9mph /  1.4km/h 2mph /  3.2km/h 92% 0in /  0.0mm 0 W/m2
05:16 54.5 °F /  12.5 °C 52.2 °F /  11.2 °C 30in /  1016.6hPa Calm   1mph /  1.6km/h 92% 0in /  0.0mm 0 W/m2
05:21 54.5 °F /  12.5 °C 52.2 °F /  11.2 °C 30in /  1016.6hPa WNW 0.9mph /  1.4km/h 1mph /  1.6km/h 92% 0in /  0.0mm 0 W/m2
05:26 54.5 °F /  12.5 °C 52.2 °F /  11.2 °C 30in /  1016.6hPa SW 0.9mph /  1.4km/h 2mph /  3.2km/h 92% 0in /  0.0mm 0 W/m2
05:31 54.3 °F /  12.4 °C 52 °F /  11.1 °C 30in /  1016.6hPa SW 0.9mph /  1.4km/h 2mph /  3.2km/h 92% 0in /  0.0mm 0 W/m2
05:36 54.5 °F /  12.5 °C 52.2 °F /  11.2 °C 30in /  1016.6hPa SW 2mph /  3.2km/h 2mph /  3.2km/h 92% 0in /  0.0mm 0 W/m2
05:41 54.5 °F /  12.5 °C 52.2 °F /  11.2 °C 30in /  1016.6hPa SW 2mph /  3.2km/h 2mph /  3.2km/h 92% 0in /  0.0mm 0 W/m2
05:46 54.7 °F /  12.6 °C 52.3 °F /  11.3 °C 30in /  1016.3hPa NW 0.9mph /  1.4km/h 3mph /  4.8km/h 92% 0in /  0.0mm 0 W/m2
05:51 54.7 °F /  12.6 °C 52.3 °F /  11.3 °C 30in /  1016.6hPa West 2.9mph /  4.7km/h 4mph /  6.4km/h 92% 0in /  0.0mm 5 W/m2
05:56 54.7 °F /  12.6 °C 52.3 °F /  11.3 °C 30in /  1016.6hPa WNW 2.9mph /  4.7km/h 4mph /  6.4km/h 92% 0in /  0.0mm 9 W/m2
06:01 54.7 °F /  12.6 °C 52.3 °F /  11.3 °C 30in /  1016.6hPa WSW 2mph /  3.2km/h 3mph /  4.8km/h 92% 0in /  0.0mm 11 W/m2
06:06 54.9 °F /  12.7 °C 52.5 °F /  11.4 °C 30in /  1016.6hPa West 2mph /  3.2km/h 5mph /  8km/h 92% 0in /  0.0mm 12 W/m2
06:11 54.9 °F /  12.7 °C 52.5 °F /  11.4 °C 30in /  1016.6hPa West 2.9mph /  4.7km/h 3mph /  4.8km/h 92% 0in /  0.0mm 23 W/m2
06:16 54.9 °F /  12.7 °C 52.5 °F /  11.4 °C 30in /  1016.6hPa WSW 2mph /  3.2km/h 2mph /  3.2km/h 92% 0in /  0.0mm 33 W/m2
06:21 54.9 °F /  12.7 °C 52.5 °F /  11.4 °C 30in /  1016.6hPa Calm   3mph /  4.8km/h 92% 0in /  0.0mm 32 W/m2
06:26 55 °F /  12.8 °C 52.7 °F /  11.5 °C 30in /  1016.6hPa West 4mph /  6.4km/h 4mph /  6.4km/h 92% 0in /  0.0mm 47 W/m2
06:31 55 °F /  12.8 °C 52.7 °F /  11.5 °C 30in /  1016.9hPa NNW 2mph /  3.2km/h 3mph /  4.8km/h 92% 0in /  0.0mm 58 W/m2
06:36 55.2 °F /  12.9 °C 52.9 °F /  11.6 °C 30in /  1016.9hPa NNW 2mph /  3.2km/h 4mph /  6.4km/h 92% 0in /  0.0mm 53 W/m2
06:41 55.4 °F /  13 °C 53.1 °F /  11.7 °C 30in /  1016.9hPa NW 2.9mph /  4.7km/h 3mph /  4.8km/h 92% 0in /  0.0mm 40 W/m2
06:46 55.6 °F /  13.1 °C 53.2 °F /  11.8 °C 30in /  1016.9hPa SSW 2.9mph /  4.7km/h 5mph /  8km/h 92% 0in /  0.0mm 39 W/m2
06:51 55.6 °F /  13.1 °C 53.2 °F /  11.8 °C 30in /  1016.9hPa WNW 0.9mph /  1.4km/h 3mph /  4.8km/h 92% 0in /  0.0mm 49 W/m2
06:56 55.6 °F /  13.1 °C 53.2 °F /  11.8 °C 30in /  1016.9hPa WNW 2mph /  3.2km/h 4mph /  6.4km/h 92% 0in /  0.0mm 65 W/m2
07:01 55.8 °F /  13.2 °C 53.4 °F /  11.9 °C 30in /  1016.6hPa NW 2mph /  3.2km/h 5mph /  8km/h 92% 0in /  0.0mm 69 W/m2
07:06 55.8 °F /  13.2 °C 53.2 °F /  11.8 °C 30in /  1016.9hPa WSW 2mph /  3.2km/h 4mph /  6.4km/h 91% 0in /  0.0mm 69 W/m2
07:11 55.8 °F /  13.2 °C 53.2 °F /  11.8 °C 30in /  1016.9hPa West 0.9mph /  1.4km/h 7mph /  11.3km/h 91% 0in /  0.0mm 84 W/m2
07:16 55.8 °F /  13.2 °C 53.2 °F /  11.8 °C 30in /  1016.9hPa NW 4mph /  6.4km/h 4mph /  6.4km/h 91% 0in /  0.0mm 93 W/m2
07:21 55.9 °F /  13.3 °C 53.4 °F /  11.9 °C 30in /  1016.9hPa WNW 0.9mph /  1.4km/h 7mph /  11.3km/h 91% 0in /  0.0mm 77 W/m2
07:26 55.9 °F /  13.3 °C 53.4 °F /  11.9 °C 30in /  1017.3hPa WNW 0.9mph /  1.4km/h 5mph /  8km/h 91% 0in /  0.0mm 72 W/m2
07:31 56.1 °F /  13.4 °C 53.6 °F /  12 °C 30in /  1017.3hPa WNW 2mph /  3.2km/h 3mph /  4.8km/h 91% 0in /  0.0mm 74 W/m2
07:36 56.1 °F /  13.4 °C 53.6 °F /  12 °C 30in /  1017.3hPa NNW 0.9mph /  1.4km/h 5mph /  8km/h 91% 0in /  0.0mm 81 W/m2
07:41 56.1 °F /  13.4 °C 53.6 °F /  12 °C 30.1in /  1017.6hPa East 2mph /  3.2km/h 2mph /  3.2km/h 91% 0in /  0.0mm 49 W/m2
07:46 56.3 °F /  13.5 °C 53.4 °F /  11.9 °C 30in /  1017.3hPa WNW 2mph /  3.2km/h 4mph /  6.4km/h 90% 0in /  0.0mm 84 W/m2
07:51 56.5 °F /  13.6 °C 54 °F /  12.2 °C 30.1in /  1017.6hPa Calm     91% 0in /  0.0mm 118 W/m2
07:56 56.7 °F /  13.7 °C 54.1 °F /  12.3 °C 30in /  1017.3hPa Calm   4mph /  6.4km/h 91% 0in /  0.0mm 142 W/m2
08:01 56.8 °F /  13.8 °C 54 °F /  12.2 °C 30.1in /  1017.6hPa NW 4mph /  6.4km/h 4mph /  6.4km/h 90% 0in /  0.0mm 116 W/m2
08:06 57 °F /  13.9 °C 54.1 °F /  12.3 °C 30.1in /  1017.6hPa Calm   3mph /  4.8km/h 90% 0in /  0.0mm 83 W/m2
08:11 57 °F /  13.9 °C 53.8 °F /  12.1 °C 30.1in /  1017.6hPa West 2mph /  3.2km/h 4mph /  6.4km/h 89% 0in /  0.0mm 91 W/m2
08:16 57 °F /  13.9 °C 53.8 °F /  12.1 °C 30.1in /  1017.6hPa WNW 0.9mph /  1.4km/h 2mph /  3.2km/h 89% 0in /  0.0mm 139 W/m2
08:21 57.2 °F /  14 °C 54 °F /  12.2 °C 30.1in /  1017.6hPa West 0.9mph /  1.4km/h 4mph /  6.4km/h 89% 0in /  0.0mm 58 W/m2
08:26 57.2 °F /  14 °C 53.6 °F /  12 °C 30.1in /  1017.6hPa Calm   3mph /  4.8km/h 88% 0in /  0.0mm 153 W/m2
08:31 57.4 °F /  14.1 °C 53.8 °F /  12.1 °C 30.1in /  1017.6hPa Calm   4mph /  6.4km/h 88% 0in /  0.0mm 195 W/m2
08:36 57.6 °F /  14.2 °C 54.3 °F /  12.4 °C 30.1in /  1017.6hPa WNW 0.9mph /  1.4km/h 2mph /  3.2km/h 89% 0in /  0.0mm 169 W/m2
08:41 58.3 °F /  14.6 °C 54.5 °F /  12.5 °C 30in /  1017.3hPa WNW 2mph /  3.2km/h 6mph /  9.7km/h 87% 0in /  0.0mm 56 W/m2
08:46 58.3 °F /  14.6 °C 54.1 °F /  12.3 °C 30.1in /  1017.6hPa WSW 4.9mph /  7.9km/h 7mph /  11.3km/h 86% 0in /  0.0mm 144 W/m2
08:51 57.9 °F /  14.4 °C 53.8 °F /  12.1 °C 30.1in /  1017.6hPa SSW 4.9mph /  7.9km/h 5mph /  8km/h 86% 0in /  0.0mm 60 W/m2
08:56 57.7 °F /  14.3 °C 53.2 °F /  11.8 °C 30.1in /  1017.6hPa West 2.9mph /  4.7km/h 4mph /  6.4km/h 85% 0in /  0.0mm 58 W/m2
09:01 57.7 °F /  14.3 °C 53.6 °F /  12 °C 30.1in /  1017.6hPa WSW 4mph /  6.4km/h 5mph /  8km/h 86% 0in /  0.0mm 225 W/m2
09:06 58.1 °F /  14.5 °C 54 °F /  12.2 °C 30.1in /  1017.6hPa NW 0.9mph /  1.4km/h 7mph /  11.3km/h 86% 0in /  0.0mm 207 W/m2
09:11 58.5 °F /  14.7 °C 54 °F /  12.2 °C 30.1in /  1018.0hPa WSW 4mph /  6.4km/h 6mph /  9.7km/h 85% 0in /  0.0mm 116 W/m2
09:16 58.5 °F /  14.7 °C 54 °F /  12.2 °C 30.1in /  1018.0hPa West 2mph /  3.2km/h 6mph /  9.7km/h 85% 0in /  0.0mm 93 W/m2
09:21 58.1 °F /  14.5 °C 53.6 °F /  12 °C 30.1in /  1018.0hPa WNW 0.9mph /  1.4km/h 4mph /  6.4km/h 85% 0in /  0.0mm 204 W/m2
09:26 58.3 °F /  14.6 °C 54.1 °F /  12.3 °C 30.1in /  1018.0hPa WNW 2.9mph /  4.7km/h 7mph /  11.3km/h 86% 0in /  0.0mm 151 W/m2
09:31 58.3 °F /  14.6 °C 53.8 °F /  12.1 °C 30.1in /  1018.0hPa WNW 2mph /  3.2km/h 3mph /  4.8km/h 85% 0in /  0.0mm 171 W/m2
09:36 58.5 °F /  14.7 °C 53.6 °F /  12 °C 30.1in /  1018.0hPa NNW 4.9mph /  7.9km/h 7mph /  11.3km/h 84% 0in /  0.0mm 160 W/m2
09:41 58.6 °F /  14.8 °C 53.8 °F /  12.1 °C 30.1in /  1018.0hPa West 0.9mph /  1.4km/h 6mph /  9.7km/h 84% 0in /  0.0mm 102 W/m2
09:46 59.5 °F /  15.3 °C 54.3 °F /  12.4 °C 30.1in /  1018.0hPa West 0.9mph /  1.4km/h 4mph /  6.4km/h 83% 0in /  0.0mm 113 W/m2
09:51 60.3 °F /  15.7 °C 54.3 °F /  12.4 °C 30.1in /  1018.0hPa WSW 4mph /  6.4km/h 8mph /  12.9km/h 81% 0in /  0.0mm 279 W/m2
09:56 60.6 °F /  15.9 °C 54.5 °F /  12.5 °C 30.1in /  1018.0hPa South 2mph /  3.2km/h 4mph /  6.4km/h 80% 0in /  0.0mm 214 W/m2
10:01 60.8 °F /  16 °C 54.3 °F /  12.4 °C 30.1in /  1018.0hPa WNW 2.9mph /  4.7km/h 3mph /  4.8km/h 79% 0in /  0.0mm 638 W/m2
10:06 61.2 °F /  16.2 °C 54.3 °F /  12.4 °C 30.1in /  1018.0hPa NW 2.9mph /  4.7km/h 8mph /  12.9km/h 78% 0in /  0.0mm 197 W/m2
10:11 61.2 °F /  16.2 °C 54.3 °F /  12.4 °C 30.1in /  1018.0hPa West 4mph /  6.4km/h 6mph /  9.7km/h 78% 0in /  0.0mm 137 W/m2
10:16 60.6 °F /  15.9 °C 53.8 °F /  12.1 °C 30.1in /  1018.0hPa WNW 2.9mph /  4.7km/h 4mph /  6.4km/h 78% 0in /  0.0mm 234 W/m2
10:21 60.6 °F /  15.9 °C 53.8 °F /  12.1 °C 30.1in /  1018.0hPa WNW 2.9mph /  4.7km/h 7mph /  11.3km/h 78% 0in /  0.0mm 148 W/m2
10:26 60.4 °F /  15.8 °C 53.6 °F /  12 °C 30.1in /  1018.3hPa West 2mph /  3.2km/h 6mph /  9.7km/h 78% 0in /  0.0mm 185 W/m2
10:31 60.4 °F /  15.8 °C 54 °F /  12.2 °C 30.1in /  1018.0hPa NNW 2.9mph /  4.7km/h 5mph /  8km/h 79% 0in /  0.0mm 664 W/m2
10:36 61.2 °F /  16.2 °C 54.7 °F /  12.6 °C 30.1in /  1018.0hPa NW 0.9mph /  1.4km/h 7mph /  11.3km/h 79% 0in /  0.0mm 726 W/m2
10:41 61.5 °F /  16.4 °C 54.7 °F /  12.6 °C 30.1in /  1018.3hPa WSW 2.9mph /  4.7km/h 4mph /  6.4km/h 78% 0in /  0.0mm 800 W/m2
10:46 62.2 °F /  16.8 °C 55.2 °F /  12.9 °C 30.1in /  1018.3hPa WNW 8.1mph /  13km/h 10mph /  16.1km/h 78% 0in /  0.0mm 756 W/m2
10:51 62.4 °F /  16.9 °C 55.4 °F /  13 °C 30.1in /  1018.3hPa ENE 2mph /  3.2km/h 3mph /  4.8km/h 78% 0in /  0.0mm 726 W/m2
10:56 63 °F /  17.2 °C 54.5 °F /  12.5 °C 30.1in /  1018.3hPa WSW 0.9mph /  1.4km/h 7mph /  11.3km/h 74% 0in /  0.0mm 752 W/m2
11:01 63.3 °F /  17.4 °C 54.9 °F /  12.7 °C 30.1in /  1018.3hPa WNW 8.9mph /  14.3km/h 9mph /  14.5km/h 74% 0in /  0.0mm 842 W/m2
11:06 63.7 °F /  17.6 °C 54.1 °F /  12.3 °C 30.1in /  1018.3hPa NNW 4mph /  6.4km/h 7mph /  11.3km/h 71% 0in /  0.0mm 877 W/m2
11:11 63.7 °F /  17.6 °C 54.1 °F /  12.3 °C 30.1in /  1018.3hPa NW 4mph /  6.4km/h 6mph /  9.7km/h 71% 0in /  0.0mm 904 W/m2
11:16 63.3 °F /  17.4 °C 52.5 °F /  11.4 °C 30.1in /  1018.3hPa WNW 4mph /  6.4km/h 7mph /  11.3km/h 68% 0in /  0.0mm 156 W/m2
11:21 63.1 °F /  17.3 °C 53.6 °F /  12 °C 30.1in /  1018.6hPa WNW 6.9mph /  11.1km/h 8mph /  12.9km/h 71% 0in /  0.0mm 120 W/m2
11:26 62.6 °F /  17 °C 53.4 °F /  11.9 °C 30.1in /  1018.6hPa WNW 4mph /  6.4km/h 7mph /  11.3km/h 72% 0in /  0.0mm 188 W/m2
11:31 62.4 °F /  16.9 °C 53.6 °F /  12 °C 30.1in /  1018.6hPa WSW 4mph /  6.4km/h 7mph /  11.3km/h 73% 0in /  0.0mm 192 W/m2
11:36 62.4 °F /  16.9 °C 54 °F /  12.2 °C 30.1in /  1018.3hPa WNW 4.9mph /  7.9km/h 7mph /  11.3km/h 74% 0in /  0.0mm 160 W/m2
11:41 62.4 °F /  16.9 °C 52.9 °F /  11.6 °C 30.1in /  1018.6hPa NNW 2.9mph /  4.7km/h 5mph /  8km/h 71% 0in /  0.0mm 135 W/m2
11:46 62.8 °F /  17.1 °C 52.9 °F /  11.6 °C 30.1in /  1018.6hPa SSW 4mph /  6.4km/h 6mph /  9.7km/h 70% 0in /  0.0mm 872 W/m2
11:51 63.7 °F /  17.6 °C 53.8 °F /  12.1 °C 30.1in /  1018.3hPa SW 2.9mph /  4.7km/h 4mph /  6.4km/h 70% 0in /  0.0mm 886 W/m2
11:56 64.4 °F /  18 °C 54.3 °F /  12.4 °C 30.1in /  1018.3hPa NW 0.9mph /  1.4km/h 4mph /  6.4km/h 70% 0in /  0.0mm 907 W/m2
12:01 65.1 °F /  18.4 °C 54.7 °F /  12.6 °C 30.1in /  1018.3hPa West 4mph /  6.4km/h 4mph /  6.4km/h 69% 0in /  0.0mm 949 W/m2
12:06 65.8 °F /  18.8 °C 52.9 °F /  11.6 °C 30.1in /  1018.6hPa West 4mph /  6.4km/h 9mph /  14.5km/h 63% 0in /  0.0mm 984 W/m2
12:11 65.8 °F /  18.8 °C 53.2 °F /  11.8 °C 30.1in /  1018.6hPa WSW 4.9mph /  7.9km/h 13mph /  20.9km/h 64% 0in /  0.0mm 954 W/m2
12:16 65.8 °F /  18.8 °C 53.8 °F /  12.1 °C 30.1in /  1018.6hPa NW 8.1mph /  13km/h 8mph /  12.9km/h 65% 0in /  0.0mm 1000 W/m2
12:21 65.5 °F /  18.6 °C 53.1 °F /  11.7 °C 30.1in /  1018.6hPa NNW 2.9mph /  4.7km/h 13mph /  20.9km/h 64% 0in /  0.0mm 1000 W/m2
12:26 65.7 °F /  18.7 °C 54 °F /  12.2 °C 30.1in /  1018.6hPa SW 2mph /  3.2km/h 4mph /  6.4km/h 66% 0in /  0.0mm 1060 W/m2
12:31 65.8 °F /  18.8 °C 52.5 °F /  11.4 °C 30.1in /  1018.6hPa WSW 2.9mph /  4.7km/h 8mph /  12.9km/h 62% 0in /  0.0mm 190 W/m2
12:36 65.7 °F /  18.7 °C 52.3 °F /  11.3 °C 30.1in /  1018.6hPa WNW 0.9mph /  1.4km/h 5mph /  8km/h 62% 0in /  0.0mm 956 W/m2
12:42 65.5 °F /  18.6 °C 52.5 °F /  11.4 °C 30.1in /  1018.6hPa West 2.9mph /  4.7km/h 8mph /  12.9km/h 63% 0in /  0.0mm 156 W/m2
12:47 64.9 °F /  18.3 °C 52 °F /  11.1 °C 30.1in /  1018.6hPa WNW 2mph /  3.2km/h 7mph /  11.3km/h 63% 0in /  0.0mm 165 W/m2
12:52 65.1 °F /  18.4 °C 51.8 °F /  11 °C 30.1in /  1018.6hPa WSW 2.9mph /  4.7km/h 5mph /  8km/h 62% 0in /  0.0mm 142 W/m2
12:57 65.7 °F /  18.7 °C 52.7 °F /  11.5 °C 30.1in /  1018.6hPa ENE 0.9mph /  1.4km/h 3mph /  4.8km/h 63% 0in /  0.0mm 461 W/m2
13:02 66.6 °F /  19.2 °C 52.7 °F /  11.5 °C 30.1in /  1018.3hPa NE 4mph /  6.4km/h 5mph /  8km/h 61% 0in /  0.0mm 506 W/m2
13:07 67.5 °F /  19.7 °C 52.2 °F /  11.2 °C 30.1in /  1018.6hPa WNW 2.9mph /  4.7km/h 5mph /  8km/h 58% 0in /  0.0mm 1188 W/m2
13:12 67.5 °F /  19.7 °C 52.2 °F /  11.2 °C 30.1in /  1018.6hPa WNW 4mph /  6.4km/h 8mph /  12.9km/h 58% 0in /  0.0mm 907 W/m2
13:17 66.9 °F /  19.4 °C 52.2 °F /  11.2 °C 30.1in /  1018.6hPa WSW 4mph /  6.4km/h 7mph /  11.3km/h 59% 0in /  0.0mm 297 W/m2
13:22 66.7 °F /  19.3 °C 52 °F /  11.1 °C 30.1in /  1018.6hPa WSW 6.9mph /  11.1km/h 7mph /  11.3km/h 59% 0in /  0.0mm 318 W/m2
13:27 66.2 °F /  19 °C 50.5 °F /  10.3 °C 30.1in /  1018.6hPa West 0.9mph /  1.4km/h 8mph /  12.9km/h 57% 0in /  0.0mm 371 W/m2
13:32 66.6 °F /  19.2 °C 52.2 °F /  11.2 °C 30.1in /  1018.6hPa WNW 6.9mph /  11.1km/h 8mph /  12.9km/h 60% 0in /  0.0mm 979 W/m2
13:37 66.7 °F /  19.3 °C 52.3 °F /  11.3 °C 30.1in /  1018.6hPa SW 2.9mph /  4.7km/h 7mph /  11.3km/h 60% 0in /  0.0mm 965 W/m2
13:42 67.6 °F /  19.8 °C 52.9 °F /  11.6 °C 30.1in /  1018.6hPa NW 2mph /  3.2km/h 4mph /  6.4km/h 59% 0in /  0.0mm 960 W/m2
13:47 67.8 °F /  19.9 °C 50 °F /  10 °C 30.1in /  1018.6hPa West 0.9mph /  1.4km/h 4mph /  6.4km/h 53% 0in /  0.0mm 1127 W/m2
13:52 67.6 °F /  19.8 °C 50.9 °F /  10.5 °C 30.1in /  1018.3hPa NNW 2mph /  3.2km/h 5mph /  8km/h 55% 0in /  0.0mm 1130 W/m2
13:57 67.8 °F /  19.9 °C 50.5 °F /  10.3 °C 30.1in /  1018.3hPa South 0.9mph /  1.4km/h 6mph /  9.7km/h 54% 0in /  0.0mm 313 W/m2
14:02 68 °F /  20 °C 51.8 °F /  11 °C 30.1in /  1018.6hPa WNW 6.9mph /  11.1km/h 8mph /  12.9km/h 56% 0in /  0.0mm 1092 W/m2
14:07 68.4 °F /  20.2 °C 52 °F /  11.1 °C 30.1in /  1018.3hPa SW 2.9mph /  4.7km/h 7mph /  11.3km/h 56% 0in /  0.0mm 972 W/m2
14:12 68.4 °F /  20.2 °C 51.1 °F /  10.6 °C 30.1in /  1018.6hPa West 6mph /  9.7km/h 9mph /  14.5km/h 54% 0in /  0.0mm 1005 W/m2
14:17 68.2 °F /  20.1 °C 50.9 °F /  10.5 °C 30.1in /  1018.3hPa West 2.9mph /  4.7km/h 10mph /  16.1km/h 54% 0in /  0.0mm 234 W/m2
14:22 67.6 °F /  19.8 °C 51.4 °F /  10.8 °C 30.1in /  1018.6hPa WNW 2.9mph /  4.7km/h 4mph /  6.4km/h 56% 0in /  0.0mm 243 W/m2
14:27 67.5 °F /  19.7 °C 51.3 °F /  10.7 °C 30.1in /  1018.6hPa NW 4mph /  6.4km/h 10mph /  16.1km/h 56% 0in /  0.0mm 809 W/m2
14:32 67.8 °F /  19.9 °C 52 °F /  11.1 °C 30.1in /  1018.6hPa WSW 0.9mph /  1.4km/h 2mph /  3.2km/h 57% 0in /  0.0mm 176 W/m2
14:37 68.2 °F /  20.1 °C 50.9 °F /  10.5 °C 30.1in /  1018.6hPa NW 2.9mph /  4.7km/h 8mph /  12.9km/h 54% 0in /  0.0mm 1009 W/m2
14:42 68.5 °F /  20.3 °C 50.7 °F /  10.4 °C 30.1in /  1018.6hPa WNW 6.9mph /  11.1km/h 8mph /  12.9km/h 53% 0in /  0.0mm 1005 W/m2
14:47 68.9 °F /  20.5 °C 51.1 °F /  10.6 °C 30.1in /  1018.6hPa SW 2.9mph /  4.7km/h 4mph /  6.4km/h 53% 0in /  0.0mm 1046 W/m2
14:52 68.9 °F /  20.5 °C 49.5 °F /  9.7 °C 30.1in /  1018.6hPa ESE 0.9mph /  1.4km/h 3mph /  4.8km/h 50% 0in /  0.0mm 225 W/m2
14:57 68.7 °F /  20.4 °C 50.4 °F /  10.2 °C 30.1in /  1018.6hPa West 2.9mph /  4.7km/h 6mph /  9.7km/h 52% 0in /  0.0mm 260 W/m2
15:02 69.1 °F /  20.6 °C 51.8 °F /  11 °C 30.1in /  1018.6hPa WNW 6.9mph /  11.1km/h 11mph /  17.7km/h 54% 0in /  0.0mm 1114 W/m2
15:07 69.6 °F /  20.9 °C 51.8 °F /  11 °C 30.1in /  1018.6hPa WSW 4mph /  6.4km/h 9mph /  14.5km/h 53% 0in /  0.0mm 1071 W/m2
15:12 70 °F /  21.1 °C 50.5 °F /  10.3 °C 30.1in /  1018.3hPa WNW 4mph /  6.4km/h 11mph /  17.7km/h 50% 0in /  0.0mm 287 W/m2
15:17 70.2 °F /  21.2 °C 50.7 °F /  10.4 °C 30.1in /  1018.6hPa WNW 4.9mph /  7.9km/h 7mph /  11.3km/h 50% 0in /  0.0mm 1055 W/m2
15:22 70.3 °F /  21.3 °C 49.6 °F /  9.8 °C 30.1in /  1018.6hPa WNW 2mph /  3.2km/h 4mph /  6.4km/h 48% 0in /  0.0mm 367 W/m2
15:27 70.5 °F /  21.4 °C 50.9 °F /  10.5 °C 30.1in /  1018.6hPa NW 4.9mph /  7.9km/h 10mph /  16.1km/h 50% 0in /  0.0mm 993 W/m2
15:32 70.3 °F /  21.3 °C 52.3 °F /  11.3 °C 30.1in /  1019.0hPa NW 13mph /  20.9km/h 13mph /  20.9km/h 53% 0in /  0.0mm 993 W/m2
15:37 69.3 °F /  20.7 °C 52.3 °F /  11.3 °C 30.1in /  1019.0hPa West 11mph /  17.7km/h 12mph /  19.3km/h 55% 0in /  0.0mm 1046 W/m2
15:42 69.4 °F /  20.8 °C 52.5 °F /  11.4 °C 30.1in /  1019.0hPa West 6mph /  9.7km/h 11mph /  17.7km/h 55% 0in /  0.0mm 1028 W/m2
15:47 69.3 °F /  20.7 °C 52 °F /  11.1 °C 30.1in /  1019.0hPa WNW 8.9mph /  14.3km/h 11mph /  17.7km/h 54% 0in /  0.0mm 318 W/m2
15:52 68.5 °F /  20.3 °C 51.3 °F /  10.7 °C 30.1in /  1019.0hPa West 6mph /  9.7km/h 8mph /  12.9km/h 54% 0in /  0.0mm 244 W/m2
15:57 68 °F /  20 °C 51.3 °F /  10.7 °C 30.1in /  1019.0hPa WSW 8.9mph /  14.3km/h 14mph /  22.5km/h 55% 0in /  0.0mm 250 W/m2
16:02 67.3 °F /  19.6 °C 51.1 °F /  10.6 °C 30.1in /  1019.0hPa West 6.9mph /  11.1km/h 11mph /  17.7km/h 56% 0in /  0.0mm 294 W/m2
16:07 66.7 °F /  19.3 °C 50.5 °F /  10.3 °C 30.1in /  1019.0hPa West 2.9mph /  4.7km/h 10mph /  16.1km/h 56% 0in /  0.0mm 364 W/m2
16:12 66.9 °F /  19.4 °C 51.3 °F /  10.7 °C 30.1in /  1019.0hPa West 8.1mph /  13km/h 9mph /  14.5km/h 57% 0in /  0.0mm 397 W/m2
16:17 67.3 °F /  19.6 °C 51.4 °F /  10.8 °C 30.1in /  1019.0hPa WNW 6.9mph /  11.1km/h 8mph /  12.9km/h 57% 0in /  0.0mm 990 W/m2
16:22 68.2 °F /  20.1 °C 51.8 °F /  11 °C 30.1in /  1019.0hPa WNW 0.9mph /  1.4km/h 9mph /  14.5km/h 56% 0in /  0.0mm 830 W/m2
16:27 69.1 °F /  20.6 °C 51.8 °F /  11 °C 30.1in /  1019.3hPa NW 2.9mph /  4.7km/h 8mph /  12.9km/h 54% 0in /  0.0mm 784 W/m2
16:32 69.4 °F /  20.8 °C 50 °F /  10 °C 30.1in /  1019.0hPa NW 6.9mph /  11.1km/h 9mph /  14.5km/h 50% 0in /  0.0mm 758 W/m2
16:37 69.6 °F /  20.9 °C 49.6 °F /  9.8 °C 30.1in /  1019.0hPa WNW 4mph /  6.4km/h 8mph /  12.9km/h 49% 0in /  0.0mm 749 W/m2
16:42 69.8 °F /  21 °C 49.8 °F /  9.9 °C 30.1in /  1019.3hPa WNW 4mph /  6.4km/h 10mph /  16.1km/h 49% 0in /  0.0mm 745 W/m2
16:47 70 °F /  21.1 °C 50.5 °F /  10.3 °C 30.1in /  1019.0hPa NW 4mph /  6.4km/h 9mph /  14.5km/h 50% 0in /  0.0mm 766 W/m2
16:52 70.2 °F /  21.2 °C 50.2 °F /  10.1 °C 30.1in /  1019.0hPa WNW 2.9mph /  4.7km/h 7mph /  11.3km/h 49% 0in /  0.0mm 726 W/m2
16:57 70.2 °F /  21.2 °C 49.6 °F /  9.8 °C 30.1in /  1019.0hPa WNW 6mph /  9.7km/h 11mph /  17.7km/h 48% 0in /  0.0mm 729 W/m2
17:02 70 °F /  21.1 °C 50 °F /  10 °C 30.1in /  1019.3hPa WSW 2.9mph /  4.7km/h 6mph /  9.7km/h 49% 0in /  0.0mm 740 W/m2
17:07 70 °F /  21.1 °C 50 °F /  10 °C 30.1in /  1019.0hPa NW 0.9mph /  1.4km/h 4mph /  6.4km/h 49% 0in /  0.0mm 789 W/m2
17:12 70.2 °F /  21.2 °C 49.6 °F /  9.8 °C 30.1in /  1019.3hPa NW 2.9mph /  4.7km/h 5mph /  8km/h 48% 0in /  0.0mm 172 W/m2
17:17 70.2 °F /  21.2 °C 49.6 °F /  9.8 °C 30.1in /  1019.3hPa NW 4.9mph /  7.9km/h 11mph /  17.7km/h 48% 0in /  0.0mm 153 W/m2
17:22 69.8 °F /  21 °C 49.8 °F /  9.9 °C 30.1in /  1019.3hPa WSW 4.9mph /  7.9km/h 6mph /  9.7km/h 49% 0in /  0.0mm 171 W/m2
17:27 69.3 °F /  20.7 °C 49.8 °F /  9.9 °C 30.1in /  1019.3hPa WNW 4mph /  6.4km/h 11mph /  17.7km/h 50% 0in /  0.0mm 251 W/m2
17:32 69.4 °F /  20.8 °C 50.5 °F /  10.3 °C 30.1in /  1019.3hPa West 2.9mph /  4.7km/h 10mph /  16.1km/h 51% 0in /  0.0mm 227 W/m2
17:37 69.4 °F /  20.8 °C 50 °F /  10 °C 30.1in /  1019.3hPa ENE 2mph /  3.2km/h 4mph /  6.4km/h 50% 0in /  0.0mm 174 W/m2
17:42 69.4 °F /  20.8 °C 50 °F /  10 °C 30.1in /  1019.3hPa SSW 0.9mph /  1.4km/h 9mph /  14.5km/h 50% 0in /  0.0mm 190 W/m2
17:47 69.1 °F /  20.6 °C 50.2 °F /  10.1 °C 30.1in /  1019.3hPa SSW 2.9mph /  4.7km/h 6mph /  9.7km/h 51% 0in /  0.0mm 225 W/m2
17:52 68.9 °F /  20.5 °C 50 °F /  10 °C 30.1in /  1019.3hPa WSW 2mph /  3.2km/h 8mph /  12.9km/h 51% 0in /  0.0mm 193 W/m2
17:57 69.1 °F /  20.6 °C 50.7 °F /  10.4 °C 30.1in /  1019.3hPa West 2mph /  3.2km/h 4mph /  6.4km/h 52% 0in /  0.0mm 246 W/m2
18:02 69.3 °F /  20.7 °C 51.4 °F /  10.8 °C 30.1in /  1019.3hPa Calm   2mph /  3.2km/h 53% 0in /  0.0mm 700 W/m2
18:07 70 °F /  21.1 °C 51.1 °F /  10.6 °C 30.1in /  1019.3hPa NW 2mph /  3.2km/h 3mph /  4.8km/h 51% 0in /  0.0mm 647 W/m2
18:12 71.1 °F /  21.7 °C 52 °F /  11.1 °C 30.1in /  1019.3hPa WNW 2mph /  3.2km/h 6mph /  9.7km/h 51% 0in /  0.0mm 554 W/m2
18:17 71.4 °F /  21.9 °C 49.6 °F /  9.8 °C 30.1in /  1019.3hPa WNW 2.9mph /  4.7km/h 10mph /  16.1km/h 46% 0in /  0.0mm 517 W/m2
18:22 71.1 °F /  21.7 °C 49.8 °F /  9.9 °C 30.1in /  1019.0hPa WNW 2.9mph /  4.7km/h 8mph /  12.9km/h 47% 0in /  0.0mm 492 W/m2
18:27 70.9 °F /  21.6 °C 50.2 °F /  10.1 °C 30.1in /  1019.3hPa NW 4mph /  6.4km/h 10mph /  16.1km/h 48% 0in /  0.0mm 464 W/m2
18:32 70.9 °F /  21.6 °C 50.7 °F /  10.4 °C 30.1in /  1019.3hPa West 2mph /  3.2km/h 8mph /  12.9km/h 49% 0in /  0.0mm 429 W/m2
18:37 70.9 °F /  21.6 °C 50.7 °F /  10.4 °C 30.1in /  1019.3hPa WSW 2.9mph /  4.7km/h 6mph /  9.7km/h 49% 0in /  0.0mm 397 W/m2
18:42 70.9 °F /  21.6 °C 50.7 °F /  10.4 °C 30.1in /  1019.3hPa WNW 2mph /  3.2km/h 3mph /  4.8km/h 49% 0in /  0.0mm 397 W/m2
18:47 70.3 °F /  21.3 °C 50.9 °F /  10.5 °C 30.1in /  1019.3hPa WSW 4mph /  6.4km/h 5mph /  8km/h 50% 0in /  0.0mm 76 W/m2
18:52 70 °F /  21.1 °C 51.1 °F /  10.6 °C 30.1in /  1019.3hPa WNW 2.9mph /  4.7km/h 4mph /  6.4km/h 51% 0in /  0.0mm 323 W/m2
18:57 70.2 °F /  21.2 °C 50.7 °F /  10.4 °C 30.1in /  1019.3hPa WNW 2.9mph /  4.7km/h 3mph /  4.8km/h 50% 0in /  0.0mm 86 W/m2
19:02 70.3 °F /  21.3 °C 50.9 °F /  10.5 °C 30.1in /  1019.3hPa WSW 2mph /  3.2km/h 9mph /  14.5km/h 50% 0in /  0.0mm 79 W/m2
19:07 70.2 °F /  21.2 °C 50.7 °F /  10.4 °C 30.1in /  1019.3hPa WSW 2mph /  3.2km/h 5mph /  8km/h 50% 0in /  0.0mm 49 W/m2
19:12 70.3 °F /  21.3 °C 51.4 °F /  10.8 °C 30.1in /  1019.3hPa WNW 0.9mph /  1.4km/h 9mph /  14.5km/h 51% 0in /  0.0mm 65 W/m2
19:17 70.5 °F /  21.4 °C 50.9 °F /  10.5 °C 30.1in /  1019.3hPa West 8.1mph /  13km/h 8mph /  12.9km/h 50% 0in /  0.0mm 63 W/m2
19:22 70.3 °F /  21.3 °C 50.9 °F /  10.5 °C 30.1in /  1019.3hPa WSW 2.9mph /  4.7km/h 4mph /  6.4km/h 50% 0in /  0.0mm 74 W/m2
19:27 70.9 °F /  21.6 °C 50.7 °F /  10.4 °C 30.1in /  1019.3hPa WNW 2.9mph /  4.7km/h 6mph /  9.7km/h 49% 0in /  0.0mm 98 W/m2
19:32 71.1 °F /  21.7 °C 50.9 °F /  10.5 °C 30.1in /  1019.3hPa West 6mph /  9.7km/h 6mph /  9.7km/h 49% 0in /  0.0mm 98 W/m2
19:37 70.5 °F /  21.4 °C 50.9 °F /  10.5 °C 30.1in /  1019.3hPa NW 4.9mph /  7.9km/h 8mph /  12.9km/h 50% 0in /  0.0mm 81 W/m2
19:42 69.8 °F /  21 °C 50.9 °F /  10.5 °C 30.1in /  1019.6hPa West 6mph /  9.7km/h 9mph /  14.5km/h 51% 0in /  0.0mm 60 W/m2
19:47 69.1 °F /  20.6 °C 50.7 °F /  10.4 °C 30.1in /  1019.6hPa West 6mph /  9.7km/h 7mph /  11.3km/h 52% 0in /  0.0mm 40 W/m2
19:52 68.4 °F /  20.2 °C 50.5 °F /  10.3 °C 30.1in /  1019.6hPa WSW 4mph /  6.4km/h 8mph /  12.9km/h 53% 0in /  0.0mm 44 W/m2
19:57 67.8 °F /  19.9 °C 50 °F /  10 °C 30.1in /  1019.6hPa West 2mph /  3.2km/h 4mph /  6.4km/h 53% 0in /  0.0mm 39 W/m2
20:02 67.5 °F /  19.7 °C 50.2 °F /  10.1 °C 30.1in /  1019.6hPa West 4mph /  6.4km/h 4mph /  6.4km/h 54% 0in /  0.0mm 40 W/m2
20:07 67.1 °F /  19.5 °C 50.4 °F /  10.2 °C 30.1in /  1019.6hPa SW 2mph /  3.2km/h 3mph /  4.8km/h 55% 0in /  0.0mm 37 W/m2
20:12 66.7 °F /  19.3 °C 50 °F /  10 °C 30.1in /  1019.6hPa West 0.9mph /  1.4km/h 3mph /  4.8km/h 55% 0in /  0.0mm 33 W/m2
20:17 66.6 °F /  19.2 °C 50.4 °F /  10.2 °C 30.1in /  1019.6hPa West 2mph /  3.2km/h 3mph /  4.8km/h 56% 0in /  0.0mm 33 W/m2
20:22 66.4 °F /  19.1 °C 50.7 °F /  10.4 °C 30.1in /  1019.6hPa West 0.9mph /  1.4km/h 2mph /  3.2km/h 57% 0in /  0.0mm 35 W/m2
20:27 66 °F /  18.9 °C 50.9 °F /  10.5 °C 30.1in /  1019.6hPa West 0.9mph /  1.4km/h 2mph /  3.2km/h 58% 0in /  0.0mm 28 W/m2
20:32 65.8 °F /  18.8 °C 50.7 °F /  10.4 °C 30.1in /  1019.6hPa SW 0.9mph /  1.4km/h 5mph /  8km/h 58% 0in /  0.0mm 23 W/m2
20:37 65.7 °F /  18.7 °C 50.9 °F /  10.5 °C 30.1in /  1019.6hPa WSW 2mph /  3.2km/h 3mph /  4.8km/h 59% 0in /  0.0mm 19 W/m2
20:42 65.5 °F /  18.6 °C 51.3 °F /  10.7 °C 30.1in /  1019.6hPa WSW 0.9mph /  1.4km/h 5mph /  8km/h 60% 0in /  0.0mm 19 W/m2
20:47 65.3 °F /  18.5 °C 51.1 °F /  10.6 °C 30.1in /  1019.6hPa WSW 0.9mph /  1.4km/h 2mph /  3.2km/h 60% 0in /  0.0mm 18 W/m2
20:52 65.1 °F /  18.4 °C 50.9 °F /  10.5 °C 30.1in /  1019.6hPa West 2.9mph /  4.7km/h 4mph /  6.4km/h 60% 0in /  0.0mm 49 W/m2
20:57 65.3 °F /  18.5 °C 51.1 °F /  10.6 °C 30.1in /  1019.6hPa West 2.9mph /  4.7km/h 4mph /  6.4km/h 60% 0in /  0.0mm 53 W/m2
21:02 65.7 °F /  18.7 °C 50.9 °F /  10.5 °C 30.1in /  1020.0hPa West 2.9mph /  4.7km/h 3mph /  4.8km/h 59% 0in /  0.0mm 44 W/m2
21:07 65.8 °F /  18.8 °C 50.7 °F /  10.4 °C 30.1in /  1020.0hPa WSW 2.9mph /  4.7km/h 3mph /  4.8km/h 58% 0in /  0.0mm 37 W/m2
21:12 66 °F /  18.9 °C 50.9 °F /  10.5 °C 30.1in /  1020.0hPa WSW 2.9mph /  4.7km/h 3mph /  4.8km/h 58% 0in /  0.0mm 30 W/m2
21:17 66 °F /  18.9 °C 50.9 °F /  10.5 °C 30.1in /  1020.0hPa WSW 2mph /  3.2km/h 2mph /  3.2km/h 58% 0in /  0.0mm 14 W/m2
21:22 65.8 °F /  18.8 °C 50.7 °F /  10.4 °C 30.1in /  1020.0hPa West 2mph /  3.2km/h 4mph /  6.4km/h 58% 0in /  0.0mm 12 W/m2
21:27 65.5 °F /  18.6 °C 50.7 °F /  10.4 °C 30.1in /  1020.0hPa West 0.9mph /  1.4km/h 4mph /  6.4km/h 59% 0in /  0.0mm 11 W/m2
21:32 65.3 °F /  18.5 °C 51.1 °F /  10.6 °C 30.1in /  1020.3hPa WSW 0.9mph /  1.4km/h 2mph /  3.2km/h 60% 0in /  0.0mm 7 W/m2
21:37 64.9 °F /  18.3 °C 51.1 °F /  10.6 °C 30.1in /  1020.3hPa Calm   4mph /  6.4km/h 61% 0in /  0.0mm 5 W/m2
21:42 64.8 °F /  18.2 °C 51.1 °F /  10.6 °C 30.1in /  1020.3hPa WSW 2mph /  3.2km/h 3mph /  4.8km/h 61% 0in /  0.0mm 5 W/m2
21:47 64.4 °F /  18 °C 51.1 °F /  10.6 °C 30.1in /  1020.3hPa WSW 0.9mph /  1.4km/h 2mph /  3.2km/h 62% 0in /  0.0mm 0 W/m2
21:52 64 °F /  17.8 °C 51.6 °F /  10.9 °C 30.1in /  1020.3hPa Calm     64% 0in /  0.0mm 0 W/m2
21:57 63.7 °F /  17.6 °C 51.6 °F /  10.9 °C 30.1in /  1020.7hPa Calm   1mph /  1.6km/h 65% 0in /  0.0mm 0 W/m2
22:02 63.3 °F /  17.4 °C 51.8 °F /  11 °C 30.1in /  1020.7hPa Calm     66% 0in /  0.0mm 0 W/m2
22:07 63 °F /  17.2 °C 51.8 °F /  11 °C 30.1in /  1020.7hPa WSW 2mph /  3.2km/h 2mph /  3.2km/h 67% 0in /  0.0mm 0 W/m2
22:12 62.4 °F /  16.9 °C 51.8 °F /  11 °C 30.1in /  1020.7hPa West 0.9mph /  1.4km/h 2mph /  3.2km/h 68% 0in /  0.0mm 0 W/m2
22:17 62.1 °F /  16.7 °C 51.4 °F /  10.8 °C 30.1in /  1020.7hPa Calm   2mph /  3.2km/h 68% 0in /  0.0mm 0 W/m2
22:22 61.9 °F /  16.6 °C 51.6 °F /  10.9 °C 30.1in /  1020.7hPa Calm     69% 0in /  0.0mm 0 W/m2
22:27 61.5 °F /  16.4 °C 51.6 °F /  10.9 °C 30.1in /  1020.7hPa Calm     70% 0in /  0.0mm 0 W/m2
22:32 61.3 °F /  16.3 °C 51.4 °F /  10.8 °C 30.1in /  1020.7hPa Calm     70% 0in /  0.0mm 0 W/m2
22:37 61 °F /  16.1 °C 51.1 °F /  10.6 °C 30.1in /  1020.7hPa Calm     70% 0in /  0.0mm 0 W/m2
22:42 60.6 °F /  15.9 °C 51.1 °F /  10.6 °C 30.2in /  1021.0hPa Calm     71% 0in /  0.0mm 0 W/m2
22:47 60.4 °F /  15.8 °C 51.4 °F /  10.8 °C 30.2in /  1021.0hPa Calm     72% 0in /  0.0mm 0 W/m2
22:52 60.1 °F /  15.6 °C 51.1 °F /  10.6 °C 30.2in /  1021.0hPa Calm     72% 0in /  0.0mm 0 W/m2
22:57 59.7 °F /  15.4 °C 51.1 °F /  10.6 °C 30.2in /  1021.0hPa Calm     73% 0in /  0.0mm 0 W/m2
23:02 59.5 °F /  15.3 °C 51.3 °F /  10.7 °C 30.2in /  1021.0hPa Calm     74% 0in /  0.0mm 0 W/m2
23:07 59.4 °F /  15.2 °C 51.1 °F /  10.6 °C 30.2in /  1021.0hPa Calm     74% 0in /  0.0mm 0 W/m2
23:12 59 °F /  15 °C 51.1 °F /  10.6 °C 30.2in /  1021.0hPa Calm     75% 0in /  0.0mm 0 W/m2
23:17 58.8 °F /  14.9 °C 51.3 °F /  10.7 °C 30.2in /  1021.0hPa Calm     76% 0in /  0.0mm 0 W/m2
23:22 58.6 °F /  14.8 °C 51.1 °F /  10.6 °C 30.2in /  1021.0hPa Calm     76% 0in /  0.0mm 0 W/m2
23:27 58.5 °F /  14.7 °C 50.9 °F /  10.5 °C 30.2in /  1021.3hPa Calm     76% 0in /  0.0mm 0 W/m2
23:32 58.3 °F /  14.6 °C 50.7 °F /  10.4 °C 30.2in /  1021.3hPa Calm     76% 0in /  0.0mm 0 W/m2
23:37 58.3 °F /  14.6 °C 50.7 °F /  10.4 °C 30.2in /  1021.3hPa Calm     76% 0in /  0.0mm 0 W/m2
23:42 57.9 °F /  14.4 °C 50.4 °F /  10.2 °C 30.2in /  1021.3hPa Calm     76% 0in /  0.0mm 0 W/m2
23:47 57.7 °F /  14.3 °C 50.2 °F /  10.1 °C 30.2in /  1021.3hPa Calm     76% 0in /  0.0mm 0 W/m2
23:52 57.7 °F /  14.3 °C 50.5 °F /  10.3 °C 30.2in /  1021.3hPa Calm     77% 0in /  0.0mm 0 W/m2
23:57 57.6 °F /  14.2 °C 50.4 °F /  10.2 °C 30.2in /  1021.3hPa Calm     77% 0in /  0.0mm 0 W/m2
Juneau County Weather
Compliments of Weather Underground - 4 mb